createdAt,value
2023-05-24T00:00:06.783Z,242.48
2023-05-24T00:01:06.919Z,241.70
2023-05-24T00:02:07.057Z,239.20
2023-05-24T00:03:07.364Z,238.91
2023-05-24T00:04:07.357Z,239.66
2023-05-24T00:05:07.558Z,240.26
2023-05-24T00:06:07.552Z,241.30
2023-05-24T00:07:08.458Z,242.33
2023-05-24T00:08:07.785Z,243.71
2023-05-24T00:09:07.910Z,245.93
2023-05-24T00:10:08.025Z,246.88
2023-05-24T00:11:08.475Z,246.07
2023-05-24T00:12:08.320Z,246.13
2023-05-24T00:13:08.366Z,245.56
2023-05-24T00:14:08.493Z,243.93
2023-05-24T00:15:08.625Z,245.14
2023-05-24T00:16:08.769Z,246.27
2023-05-24T00:17:08.895Z,247.05
2023-05-24T00:18:09.049Z,248.22
2023-05-24T00:19:09.152Z,249.85
2023-05-24T00:20:09.298Z,249.92
2023-05-24T00:21:09.457Z,249.09
2023-05-24T00:22:09.572Z,249.83
2023-05-24T00:23:09.692Z,248.91
2023-05-24T00:24:09.827Z,247.29
2023-05-24T00:25:09.967Z,246.86
2023-05-24T00:26:10.089Z,246.46
2023-05-24T00:27:10.224Z,243.22
2023-05-24T00:28:10.357Z,234.15
2023-05-24T00:29:10.475Z,228.82
2023-05-24T00:30:10.621Z,225.41
2023-05-24T00:31:10.754Z,223.21
2023-05-24T00:32:10.976Z,220.23
2023-05-24T00:33:11.005Z,219.46
2023-05-24T00:34:11.135Z,219.61
2023-05-24T00:35:11.269Z,224.12
2023-05-24T00:36:11.402Z,226.64
2023-05-24T00:37:11.509Z,228.17
2023-05-24T00:38:11.634Z,231.68
2023-05-24T00:39:11.753Z,232.24
2023-05-24T00:40:11.891Z,233.87
2023-05-24T00:41:12.005Z,235.28
2023-05-24T00:42:12.126Z,237.00
2023-05-24T00:43:12.237Z,237.19
2023-05-24T00:44:12.370Z,236.90
2023-05-24T00:45:12.480Z,236.65
2023-05-24T00:46:12.663Z,236.89
2023-05-24T00:47:12.750Z,237.53
2023-05-24T00:48:12.869Z,236.68
2023-05-24T00:49:13.012Z,231.67
2023-05-24T00:50:13.213Z,229.39
2023-05-24T00:51:13.292Z,229.54
2023-05-24T00:52:13.399Z,231.32
2023-05-24T00:53:13.546Z,231.44
2023-05-24T00:54:13.703Z,230.64
2023-05-24T00:55:13.836Z,228.84
2023-05-24T00:56:14.007Z,229.32
2023-05-24T00:57:14.216Z,228.37
2023-05-24T00:58:14.316Z,228.71
2023-05-24T00:59:14.490Z,229.32
2023-05-24T01:00:14.648Z,228.74
2023-05-24T01:01:14.868Z,227.91
2023-05-24T01:02:15.005Z,229.09
2023-05-24T01:03:16.055Z,232.97
2023-05-24T01:04:15.302Z,233.67
2023-05-24T01:05:15.458Z,234.89
2023-05-24T01:06:15.617Z,235.39
2023-05-24T01:07:15.765Z,234.97
2023-05-24T01:08:15.908Z,236.40
2023-05-24T01:09:16.055Z,239.45
2023-05-24T01:10:16.209Z,240.39
2023-05-24T01:11:16.368Z,241.96
2023-05-24T01:12:16.511Z,243.04
2023-05-24T01:13:16.675Z,243.35
2023-05-24T01:14:16.852Z,243.89
2023-05-24T01:15:17.074Z,245.66
2023-05-24T01:16:17.228Z,248.28
2023-05-24T01:17:17.313Z,249.95
2023-05-24T01:18:17.490Z,249.00
2023-05-24T01:19:17.614Z,248.82
2023-05-24T01:20:17.858Z,248.67
2023-05-24T01:21:17.930Z,250.00
2023-05-24T01:22:18.054Z,249.59
2023-05-24T01:23:18.237Z,249.74
2023-05-24T01:24:18.384Z,250.00
2023-05-24T01:25:18.520Z,249.11
2023-05-24T01:26:18.679Z,249.45
2023-05-24T01:27:18.828Z,247.42
2023-05-24T01:28:18.944Z,246.56
2023-05-24T01:29:19.087Z,246.71
2023-05-24T01:30:19.495Z,245.90
2023-05-24T01:31:19.415Z,245.08
2023-05-24T01:32:19.477Z,244.41
2023-05-24T01:33:19.619Z,244.43
2023-05-24T01:34:19.773Z,242.23
2023-05-24T01:35:19.902Z,240.82
2023-05-24T01:36:20.042Z,240.05
2023-05-24T01:37:20.182Z,239.21
2023-05-24T01:38:20.328Z,237.95
2023-05-24T01:39:20.484Z,236.55
2023-05-24T01:40:20.626Z,237.38
2023-05-24T01:41:20.795Z,237.58
2023-05-24T01:42:21.000Z,236.93
2023-05-24T01:43:21.116Z,235.82
2023-05-24T01:44:21.273Z,233.62
2023-05-24T01:45:21.509Z,232.69
2023-05-24T01:46:21.629Z,232.00
2023-05-24T01:47:21.798Z,234.60
2023-05-24T01:48:21.896Z,236.24
2023-05-24T01:49:22.073Z,236.41
2023-05-24T01:50:23.868Z,235.04
2023-05-24T01:51:22.501Z,234.87
2023-05-24T01:52:22.465Z,232.92
2023-05-24T01:53:22.551Z,232.63
2023-05-24T01:54:22.704Z,233.47
2023-05-24T01:55:22.773Z,234.43
2023-05-24T01:56:22.911Z,235.93
2023-05-24T01:57:23.000Z,237.19
2023-05-24T01:58:23.121Z,238.44
2023-05-24T01:59:23.231Z,239.06
2023-05-24T02:00:23.336Z,239.66
2023-05-24T02:01:23.487Z,239.59
2023-05-24T02:02:23.675Z,241.15
2023-05-24T02:03:23.704Z,242.76
2023-05-24T02:04:23.782Z,242.67
2023-05-24T02:05:23.884Z,241.70
2023-05-24T02:06:23.996Z,240.60
2023-05-24T02:07:24.101Z,239.98
2023-05-24T02:08:24.222Z,239.82
2023-05-24T02:09:24.328Z,241.10
2023-05-24T02:10:24.425Z,241.61
2023-05-24T02:11:24.559Z,240.85
2023-05-24T02:12:24.655Z,239.12
2023-05-24T02:13:24.795Z,238.00
2023-05-24T02:14:24.897Z,237.87
2023-05-24T02:15:25.004Z,238.54
2023-05-24T02:16:25.213Z,237.96
2023-05-24T02:17:25.277Z,238.25
2023-05-24T02:18:25.341Z,236.96
2023-05-24T02:19:25.452Z,235.51
2023-05-24T02:20:25.725Z,235.19
2023-05-24T02:21:25.692Z,235.45
2023-05-24T02:22:25.790Z,235.21
2023-05-24T02:23:25.899Z,235.33
2023-05-24T02:24:26.011Z,233.81
2023-05-24T02:25:26.255Z,233.10
2023-05-24T02:26:26.241Z,233.15
2023-05-24T02:27:26.424Z,233.90
2023-05-24T02:28:26.446Z,235.29
2023-05-24T02:29:26.554Z,236.12
2023-05-24T02:30:26.660Z,236.29
2023-05-24T02:31:26.807Z,236.12
2023-05-24T02:32:26.881Z,235.24
2023-05-24T02:33:26.981Z,234.94
2023-05-24T02:34:27.116Z,234.42
2023-05-24T02:35:27.240Z,235.17
2023-05-24T02:36:27.324Z,235.94
2023-05-24T02:37:28.069Z,235.71
2023-05-24T02:38:27.546Z,235.79
2023-05-24T02:39:27.654Z,238.36
2023-05-24T02:40:27.770Z,239.85
2023-05-24T02:41:27.885Z,240.84
2023-05-24T02:42:28.004Z,242.26
2023-05-24T02:43:28.146Z,242.13
2023-05-24T02:44:28.291Z,241.03
2023-05-24T02:45:28.461Z,241.20
2023-05-24T02:46:28.635Z,240.31
2023-05-24T02:47:28.748Z,239.23
2023-05-24T02:48:28.876Z,237.96
2023-05-24T02:49:29.087Z,237.39
2023-05-24T02:50:29.168Z,237.85
2023-05-24T02:51:29.314Z,238.46
2023-05-24T02:52:29.448Z,238.99
2023-05-24T02:53:29.592Z,237.88
2023-05-24T02:54:29.739Z,239.15
2023-05-24T02:55:29.882Z,237.98
2023-05-24T02:56:30.015Z,238.45
2023-05-24T02:57:30.169Z,237.11
2023-05-24T02:58:31.017Z,236.41
2023-05-24T02:59:30.489Z,237.19
2023-05-24T03:00:30.651Z,236.93
2023-05-24T03:01:30.859Z,235.04
2023-05-24T03:02:31.077Z,232.94
2023-05-24T03:03:31.291Z,230.82
2023-05-24T03:04:31.318Z,231.10
2023-05-24T03:05:31.467Z,231.49
2023-05-24T03:06:31.630Z,233.18
2023-05-24T03:07:31.782Z,234.90
2023-05-24T03:08:32.507Z,236.20
2023-05-24T03:09:32.106Z,237.44
2023-05-24T03:10:32.258Z,237.62
2023-05-24T03:11:32.399Z,238.38
2023-05-24T03:12:33.036Z,240.92
2023-05-24T03:13:32.705Z,241.14
2023-05-24T03:14:32.835Z,241.19
2023-05-24T03:15:33.004Z,243.29
2023-05-24T03:16:33.171Z,244.02
2023-05-24T03:17:33.306Z,243.31
2023-05-24T03:18:33.473Z,241.45
2023-05-24T03:19:33.636Z,238.17
2023-05-24T03:20:33.982Z,237.08
2023-05-24T03:21:34.024Z,231.66
2023-05-24T03:22:34.137Z,230.57
2023-05-24T03:23:34.310Z,230.46
2023-05-24T03:24:34.460Z,230.53
2023-05-24T03:25:34.646Z,230.95
2023-05-24T03:26:34.792Z,230.59
2023-05-24T03:27:34.953Z,231.07
2023-05-24T03:28:35.122Z,230.55
2023-05-24T03:29:35.287Z,231.05
2023-05-24T03:30:36.027Z,231.30
2023-05-24T03:31:35.655Z,231.22
2023-05-24T03:32:35.822Z,232.67
2023-05-24T03:33:35.965Z,234.69
2023-05-24T03:34:36.142Z,236.89
2023-05-24T03:35:36.312Z,238.30
2023-05-24T03:36:36.554Z,238.84
2023-05-24T03:37:36.649Z,238.79
2023-05-24T03:38:36.828Z,237.32
2023-05-24T03:39:36.991Z,235.75
2023-05-24T03:40:37.158Z,234.82
2023-05-24T03:41:37.334Z,233.16
2023-05-24T03:42:37.506Z,233.13
2023-05-24T03:43:37.677Z,234.32
2023-05-24T03:44:37.864Z,236.14
2023-05-24T03:45:40.075Z,238.03
2023-05-24T03:46:38.277Z,238.46
2023-05-24T03:47:38.364Z,239.22
2023-05-24T03:48:39.040Z,237.67
2023-05-24T03:49:38.673Z,237.88
2023-05-24T03:50:38.835Z,238.85
2023-05-24T03:51:38.986Z,238.75
2023-05-24T03:52:39.148Z,238.68
2023-05-24T03:53:39.311Z,239.44
2023-05-24T03:54:39.527Z,237.52
2023-05-24T03:55:39.621Z,235.00
2023-05-24T03:56:39.788Z,232.69
2023-05-24T03:57:40.018Z,233.08
2023-05-24T03:58:40.109Z,234.91
2023-05-24T03:59:41.198Z,235.22
2023-05-24T04:00:42.199Z,235.31
2023-05-24T04:01:40.517Z,235.39
2023-05-24T04:02:41.677Z,235.26
2023-05-24T04:03:40.822Z,233.55
2023-05-24T04:04:40.827Z,232.44
2023-05-24T04:05:40.957Z,231.96
2023-05-24T04:06:41.056Z,231.85
2023-05-24T04:07:41.175Z,233.88
2023-05-24T04:08:42.283Z,233.97
2023-05-24T04:09:41.404Z,233.97
2023-05-24T04:10:41.649Z,233.36
2023-05-24T04:11:41.627Z,231.97
2023-05-24T04:12:41.755Z,231.73
2023-05-24T04:13:41.848Z,232.20
2023-05-24T04:14:41.969Z,233.55
2023-05-24T04:15:42.146Z,234.24
2023-05-24T04:16:42.252Z,232.75
2023-05-24T04:17:43.430Z,231.59
2023-05-24T04:18:42.474Z,230.44
2023-05-24T04:19:42.556Z,230.15
2023-05-24T04:20:42.896Z,231.24
2023-05-24T04:21:42.876Z,232.50
2023-05-24T04:22:42.899Z,234.39
2023-05-24T04:23:43.089Z,235.44
2023-05-24T04:24:43.184Z,235.82
2023-05-24T04:25:43.263Z,234.14
2023-05-24T04:26:43.376Z,233.03
2023-05-24T04:27:43.499Z,233.84
2023-05-24T04:28:43.645Z,233.16
2023-05-24T04:29:43.803Z,233.24
2023-05-24T04:30:44.075Z,235.42
2023-05-24T04:31:45.328Z,237.08
2023-05-24T04:32:44.365Z,237.55
2023-05-24T04:33:44.493Z,238.02
2023-05-24T04:34:44.657Z,238.20
2023-05-24T04:35:44.829Z,237.81
2023-05-24T04:36:45.003Z,236.63
2023-05-24T04:37:45.184Z,236.32
2023-05-24T04:38:45.339Z,236.75
2023-05-24T04:39:45.595Z,238.14
2023-05-24T04:40:45.687Z,239.75
2023-05-24T04:41:45.869Z,241.88
2023-05-24T04:42:46.018Z,242.45
2023-05-24T04:43:46.182Z,241.25
2023-05-24T04:44:46.345Z,239.68
2023-05-24T04:45:46.588Z,239.69
2023-05-24T04:46:46.697Z,241.03
2023-05-24T04:47:46.844Z,241.44
2023-05-24T04:48:46.961Z,241.59
2023-05-24T04:49:48.073Z,241.66
2023-05-24T04:50:47.200Z,241.60
2023-05-24T04:51:47.287Z,239.10
2023-05-24T04:52:47.470Z,235.69
2023-05-24T04:53:47.527Z,233.95
2023-05-24T04:54:47.621Z,232.67
2023-05-24T04:55:47.747Z,231.86
2023-05-24T04:56:47.853Z,233.50
2023-05-24T04:57:47.966Z,233.89
2023-05-24T04:58:49.059Z,234.23
2023-05-24T04:59:48.188Z,234.25
2023-05-24T05:00:48.322Z,233.34
2023-05-24T05:01:48.523Z,232.38
2023-05-24T05:02:48.706Z,230.87
2023-05-24T05:03:48.760Z,229.53
2023-05-24T05:04:48.962Z,227.93
2023-05-24T05:05:49.058Z,227.73
2023-05-24T05:06:49.247Z,226.91
2023-05-24T05:07:49.382Z,226.76
2023-05-24T05:08:49.556Z,225.89
2023-05-24T05:09:49.733Z,225.20
2023-05-24T05:10:49.917Z,223.02
2023-05-24T05:11:50.077Z,221.55
2023-05-24T05:12:50.338Z,218.68
2023-05-24T05:13:50.453Z,217.77
2023-05-24T05:14:50.666Z,217.02
2023-05-24T05:15:50.844Z,217.62
2023-05-24T05:16:51.031Z,217.04
2023-05-24T05:17:51.302Z,218.09
2023-05-24T05:18:51.381Z,216.55
2023-05-24T05:19:51.611Z,213.99
2023-05-24T05:20:51.769Z,210.71
2023-05-24T05:21:51.937Z,209.14
2023-05-24T05:22:52.117Z,210.44
2023-05-24T05:23:52.271Z,206.19
2023-05-24T05:24:52.456Z,200.48
2023-05-24T05:25:52.656Z,200.11
2023-05-24T05:26:52.812Z,198.15
2023-05-24T05:27:52.998Z,195.70
2023-05-24T05:28:53.135Z,199.17
2023-05-24T05:29:53.418Z,203.01
2023-05-24T05:30:53.468Z,206.52
2023-05-24T05:31:53.635Z,206.72
2023-05-24T05:32:53.885Z,205.29
2023-05-24T05:33:53.961Z,207.37
2023-05-24T05:34:54.123Z,208.20
2023-05-24T05:35:55.053Z,209.11
2023-05-24T05:36:54.444Z,209.72
2023-05-24T05:37:54.592Z,207.68
2023-05-24T05:38:54.780Z,204.95
2023-05-24T05:39:54.905Z,203.46
2023-05-24T05:40:55.099Z,203.34
2023-05-24T05:41:55.221Z,202.02
2023-05-24T05:42:55.380Z,201.75
2023-05-24T05:43:55.534Z,202.42
2023-05-24T05:44:56.571Z,202.51
2023-05-24T05:45:56.887Z,202.65
2023-05-24T05:46:55.920Z,203.57
2023-05-24T05:47:56.122Z,203.93
2023-05-24T05:48:56.148Z,202.22
2023-05-24T05:49:56.270Z,198.67
2023-05-24T05:50:56.396Z,199.94
2023-05-24T05:51:56.493Z,212.38
2023-05-24T05:52:56.617Z,224.12
2023-05-24T05:53:56.751Z,224.06
2023-05-24T05:54:57.570Z,218.48
2023-05-24T05:55:56.974Z,212.93
2023-05-24T05:56:57.889Z,206.70
2023-05-24T05:57:57.211Z,200.05
2023-05-24T05:58:57.342Z,195.20
2023-05-24T05:59:57.583Z,191.98
2023-05-24T06:00:57.563Z,192.89
2023-05-24T06:01:57.672Z,196.07
2023-05-24T06:02:57.852Z,196.65
2023-05-24T06:03:58.045Z,197.67
2023-05-24T06:04:58.206Z,199.22
2023-05-24T06:05:58.146Z,197.55
2023-05-24T06:06:58.237Z,195.67
2023-05-24T06:07:58.353Z,192.88
2023-05-24T06:08:58.464Z,191.91
2023-05-24T06:09:58.573Z,192.63
2023-05-24T06:10:58.692Z,195.85
2023-05-24T06:11:58.803Z,198.16
2023-05-24T06:12:58.897Z,199.23
2023-05-24T06:13:59.012Z,200.49
2023-05-24T06:14:59.107Z,201.90
2023-05-24T06:15:59.241Z,204.41
2023-05-24T06:17:00.254Z,206.14
2023-05-24T06:18:00.153Z,204.96
2023-05-24T06:19:06.055Z,204.93
2023-05-24T06:20:00.802Z,204.23
2023-05-24T06:20:59.768Z,201.82
2023-05-24T06:21:59.868Z,201.43
2023-05-24T06:23:00.081Z,201.60
2023-05-24T06:24:00.098Z,201.80
2023-05-24T06:25:00.195Z,201.74
2023-05-24T06:26:00.397Z,202.37
2023-05-24T06:27:00.414Z,203.95
2023-05-24T06:28:00.528Z,205.41
2023-05-24T06:29:00.644Z,205.92
2023-05-24T06:30:00.814Z,202.58
2023-05-24T06:31:00.882Z,201.49
2023-05-24T06:32:01.042Z,199.84
2023-05-24T06:33:02.140Z,199.86
2023-05-24T06:34:03.861Z,198.57
2023-05-24T06:35:01.368Z,200.91
2023-05-24T06:36:01.408Z,203.72
2023-05-24T06:37:01.507Z,206.83
2023-05-24T06:38:01.709Z,204.04
2023-05-24T06:39:01.735Z,203.82
2023-05-24T06:40:01.838Z,205.19
2023-05-24T06:41:01.963Z,207.57
2023-05-24T06:42:02.076Z,210.29
2023-05-24T06:43:02.162Z,214.64
2023-05-24T06:44:02.274Z,217.20
2023-05-24T06:45:02.469Z,217.15
2023-05-24T06:46:02.499Z,216.14
2023-05-24T06:47:02.634Z,216.37
2023-05-24T06:48:02.845Z,211.06
2023-05-24T06:49:02.949Z,205.29
2023-05-24T06:50:02.919Z,202.53
2023-05-24T06:51:03.113Z,200.58
2023-05-24T06:52:03.134Z,198.22
2023-05-24T06:53:03.240Z,196.18
2023-05-24T06:54:03.339Z,198.23
2023-05-24T06:55:03.479Z,199.41
2023-05-24T06:56:03.561Z,196.87
2023-05-24T06:57:03.669Z,197.80
2023-05-24T06:58:03.774Z,196.78
2023-05-24T06:59:03.963Z,196.72
2023-05-24T07:00:03.987Z,197.33
2023-05-24T07:01:04.138Z,194.66
2023-05-24T07:02:04.542Z,189.66
2023-05-24T07:03:04.440Z,184.96
2023-05-24T07:04:04.491Z,179.27
2023-05-24T07:05:04.721Z,173.02
2023-05-24T07:06:04.666Z,175.82
2023-05-24T07:07:04.781Z,180.05
2023-05-24T07:08:04.886Z,182.75
2023-05-24T07:09:05.001Z,185.86
2023-05-24T07:10:05.163Z,181.81
2023-05-24T07:11:05.258Z,174.05
2023-05-24T07:12:06.972Z,169.85
2023-05-24T07:13:05.432Z,174.12
2023-05-24T07:14:05.555Z,172.47
2023-05-24T07:15:05.674Z,168.80
2023-05-24T07:16:05.759Z,167.51
2023-05-24T07:17:05.991Z,173.24
2023-05-24T07:18:06.012Z,172.53
2023-05-24T07:19:06.096Z,168.84
2023-05-24T07:20:06.296Z,164.04
2023-05-24T07:21:06.324Z,167.49
2023-05-24T07:22:06.496Z,175.62
2023-05-24T07:23:06.537Z,180.37
2023-05-24T07:24:06.727Z,174.50
2023-05-24T07:25:06.773Z,150.80
2023-05-24T07:26:06.882Z,138.43
2023-05-24T07:27:06.995Z,138.73
2023-05-24T07:28:07.095Z,142.28
2023-05-24T07:29:07.229Z,146.49
2023-05-24T07:30:16.371Z,150.77
2023-05-24T07:31:08.503Z,150.89
2023-05-24T07:32:07.743Z,151.66
2023-05-24T07:33:07.726Z,152.42
2023-05-24T07:34:07.741Z,148.81
2023-05-24T07:35:07.849Z,143.67
2023-05-24T07:36:07.961Z,139.08
2023-05-24T07:37:08.064Z,137.32
2023-05-24T07:38:08.176Z,134.18
2023-05-24T07:39:08.280Z,133.93
2023-05-24T07:40:08.371Z,133.60
2023-05-24T07:41:08.490Z,136.55
2023-05-24T07:42:08.623Z,138.98
2023-05-24T07:43:08.695Z,137.35
2023-05-24T07:44:08.792Z,130.32
2023-05-24T07:45:08.899Z,128.03
2023-05-24T07:46:09.053Z,127.87
2023-05-24T07:47:09.097Z,126.16
2023-05-24T07:48:09.237Z,115.10
2023-05-24T07:49:09.304Z,102.51
2023-05-24T07:50:09.405Z,95.03
2023-05-24T07:51:09.514Z,99.38
2023-05-24T07:52:10.554Z,94.37
2023-05-24T07:53:09.787Z,95.10
2023-05-24T07:54:09.820Z,96.83
2023-05-24T07:55:09.928Z,85.24
2023-05-24T07:56:10.047Z,76.22
2023-05-24T07:57:10.271Z,78.87
2023-05-24T07:58:10.236Z,86.40
2023-05-24T07:59:11.082Z,85.27
2023-05-24T08:00:10.419Z,82.67
2023-05-24T08:01:10.646Z,78.88
2023-05-24T08:02:10.617Z,73.48
2023-05-24T08:03:10.835Z,71.41
2023-05-24T08:04:11.881Z,71.48
2023-05-24T08:05:10.936Z,72.42
2023-05-24T08:06:11.090Z,75.60
2023-05-24T08:07:11.281Z,74.98
2023-05-24T08:08:11.249Z,76.11
2023-05-24T08:09:11.350Z,78.07
2023-05-24T08:10:12.459Z,78.12
2023-05-24T08:11:11.544Z,78.13
2023-05-24T08:12:11.646Z,79.06
2023-05-24T08:13:11.736Z,79.54
2023-05-24T08:14:11.850Z,80.06
2023-05-24T08:15:12.546Z,84.42
2023-05-24T08:16:12.076Z,84.75
2023-05-24T08:17:12.127Z,79.64
2023-05-24T08:18:12.259Z,84.23
2023-05-24T08:19:12.413Z,84.54
2023-05-24T08:20:12.550Z,82.03
2023-05-24T08:21:12.516Z,85.06
2023-05-24T08:22:12.629Z,86.07
2023-05-24T08:23:13.102Z,86.84
2023-05-24T08:24:12.815Z,92.85
2023-05-24T08:25:12.918Z,97.32
2023-05-24T08:26:13.018Z,103.85
2023-05-24T08:27:13.175Z,102.28
2023-05-24T08:28:13.245Z,92.44
2023-05-24T08:29:13.317Z,89.10
2023-05-24T08:30:13.450Z,86.35
2023-05-24T08:31:13.568Z,87.06
2023-05-24T08:32:13.766Z,84.45
2023-05-24T08:33:13.748Z,84.59
2023-05-24T08:34:13.848Z,84.47
2023-05-24T08:35:21.069Z,79.96
2023-05-24T08:36:14.992Z,78.75
2023-05-24T08:37:16.074Z,72.86
2023-05-24T08:38:14.182Z,71.31
2023-05-24T08:39:14.570Z,76.67
2023-05-24T08:40:14.391Z,74.20
2023-05-24T08:41:14.486Z,74.46
2023-05-24T08:42:14.618Z,74.12
2023-05-24T08:43:14.691Z,73.83
2023-05-24T08:44:14.803Z,69.28
2023-05-24T08:45:14.925Z,68.85
2023-05-24T08:46:15.081Z,72.94
2023-05-24T08:47:15.135Z,73.86
2023-05-24T08:48:15.288Z,74.05
2023-05-24T08:49:15.336Z,74.51
2023-05-24T08:50:15.496Z,75.47
2023-05-24T08:51:15.522Z,75.88
2023-05-24T08:52:17.133Z,73.90
2023-05-24T08:53:15.739Z,74.10
2023-05-24T08:54:15.821Z,70.04
2023-05-24T08:55:16.709Z,62.99
2023-05-24T08:56:16.029Z,57.55
2023-05-24T08:57:16.114Z,56.99
2023-05-24T08:58:16.213Z,56.59
2023-05-24T08:59:17.141Z,61.68
2023-05-24T09:00:17.204Z,71.22
2023-05-24T09:01:16.581Z,77.02
2023-05-24T09:02:16.644Z,77.89
2023-05-24T09:03:16.804Z,77.87
2023-05-24T09:04:16.868Z,74.51
2023-05-24T09:05:17.042Z,71.54
2023-05-24T09:06:19.646Z,64.28
2023-05-24T09:07:17.116Z,52.46
2023-05-24T09:08:17.218Z,52.10
2023-05-24T09:09:17.283Z,63.20
2023-05-24T09:10:17.398Z,63.61
2023-05-24T09:11:17.470Z,64.77
2023-05-24T09:12:28.373Z,67.68
2023-05-24T09:13:18.731Z,63.72
2023-05-24T09:14:17.859Z,64.88
2023-05-24T09:15:19.654Z,62.01
2023-05-24T09:16:18.242Z,50.12
2023-05-24T09:17:18.285Z,55.00
2023-05-24T09:18:18.470Z,66.44
2023-05-24T09:19:18.553Z,70.23
2023-05-24T09:20:18.805Z,70.73
2023-05-24T09:21:18.774Z,67.75
2023-05-24T09:22:18.878Z,62.25
2023-05-24T09:23:19.006Z,62.46
2023-05-24T09:24:19.143Z,57.50
2023-05-24T09:25:20.139Z,51.57
2023-05-24T09:26:19.450Z,53.78
2023-05-24T09:27:19.605Z,55.04
2023-05-24T09:28:20.153Z,52.87
2023-05-24T09:29:19.914Z,55.19
2023-05-24T09:30:20.151Z,56.25
2023-05-24T09:31:20.271Z,54.01
2023-05-24T09:32:20.425Z,56.58
2023-05-24T09:33:21.144Z,58.51
2023-05-24T09:34:20.677Z,59.64
2023-05-24T09:35:20.807Z,61.21
2023-05-24T09:36:20.943Z,62.23
2023-05-24T09:37:24.448Z,63.07
2023-05-24T09:38:22.186Z,63.09
2023-05-24T09:39:21.285Z,63.29
2023-05-24T09:40:21.380Z,63.56
2023-05-24T09:41:21.530Z,59.77
2023-05-24T09:42:21.602Z,64.72
2023-05-24T09:43:24.836Z,65.19
2023-05-24T09:44:21.817Z,65.48
2023-05-24T09:45:21.922Z,66.65
2023-05-24T09:46:22.120Z,67.47
2023-05-24T09:47:22.247Z,69.89
2023-05-24T09:48:22.311Z,69.80
2023-05-24T09:49:22.377Z,70.96
2023-05-24T09:50:22.473Z,73.53
2023-05-24T09:51:22.667Z,73.74
2023-05-24T09:52:22.673Z,75.57
2023-05-24T09:53:22.793Z,79.35
2023-05-24T09:54:22.870Z,85.23
2023-05-24T09:55:22.982Z,92.24
2023-05-24T09:56:23.096Z,91.34
2023-05-24T09:57:23.777Z,95.00
2023-05-24T09:58:23.314Z,96.68
2023-05-24T09:59:23.425Z,89.51
2023-05-24T10:00:23.574Z,88.93
2023-05-24T10:01:23.740Z,93.38
2023-05-24T10:02:23.793Z,100.28
2023-05-24T10:03:23.964Z,103.35
2023-05-24T10:04:24.880Z,106.59
2023-05-24T10:05:24.176Z,112.15
2023-05-24T10:06:24.292Z,115.49
2023-05-24T10:07:24.451Z,111.96
2023-05-24T10:08:24.563Z,110.02
2023-05-24T10:09:24.761Z,112.53
2023-05-24T10:10:25.011Z,114.48
2023-05-24T10:11:25.247Z,112.13
2023-05-24T10:12:25.506Z,111.84
2023-05-24T10:13:25.636Z,114.27
2023-05-24T10:14:25.807Z,107.70
2023-05-24T10:15:25.960Z,102.85
2023-05-24T10:16:26.126Z,103.66
2023-05-24T10:17:26.394Z,100.28
2023-05-24T10:18:26.510Z,99.41
2023-05-24T10:19:26.689Z,98.67
2023-05-24T10:20:26.995Z,99.28
2023-05-24T10:21:27.057Z,103.97
2023-05-24T10:22:27.213Z,104.63
2023-05-24T10:23:27.380Z,107.70
2023-05-24T10:24:27.589Z,106.24
2023-05-24T10:25:27.778Z,103.26
2023-05-24T10:26:27.935Z,105.50
2023-05-24T10:27:28.117Z,101.39
2023-05-24T10:28:29.218Z,94.04
2023-05-24T10:29:28.416Z,95.52
2023-05-24T10:30:28.623Z,93.44
2023-05-24T10:31:28.740Z,98.29
2023-05-24T10:32:28.871Z,104.54
2023-05-24T10:33:29.025Z,112.57
2023-05-24T10:34:29.226Z,121.23
2023-05-24T10:35:29.407Z,125.88
2023-05-24T10:36:29.558Z,128.54
2023-05-24T10:37:29.818Z,131.11
2023-05-24T10:38:29.911Z,136.12
2023-05-24T10:39:30.094Z,139.06
2023-05-24T10:40:30.215Z,140.72
2023-05-24T10:41:30.377Z,142.46
2023-05-24T10:42:30.504Z,140.95
2023-05-24T10:43:30.738Z,141.49
2023-05-24T10:44:30.819Z,143.74
2023-05-24T10:45:30.961Z,141.89
2023-05-24T10:46:31.152Z,140.02
2023-05-24T10:47:31.311Z,138.37
2023-05-24T10:48:31.459Z,137.11
2023-05-24T10:49:31.630Z,135.25
2023-05-24T10:50:31.823Z,135.88
2023-05-24T10:51:31.991Z,132.31
2023-05-24T10:52:32.176Z,132.88
2023-05-24T10:53:32.359Z,130.42
2023-05-24T10:54:32.539Z,127.19
2023-05-24T10:55:32.730Z,131.94
2023-05-24T10:56:32.911Z,129.66
2023-05-24T10:57:33.102Z,125.22
2023-05-24T10:58:33.232Z,122.95
2023-05-24T10:59:33.394Z,118.05
2023-05-24T11:00:35.741Z,117.76
2023-05-24T11:01:33.770Z,114.34
2023-05-24T11:02:33.828Z,117.06
2023-05-24T11:03:33.909Z,113.31
2023-05-24T11:04:34.041Z,118.25
2023-05-24T11:05:34.185Z,115.31
2023-05-24T11:06:34.253Z,116.58
2023-05-24T11:07:34.375Z,120.87
2023-05-24T11:08:34.495Z,122.54
2023-05-24T11:09:35.209Z,118.10
2023-05-24T11:10:34.739Z,119.01
2023-05-24T11:11:34.922Z,119.50
2023-05-24T11:12:35.181Z,124.27
2023-05-24T11:13:35.138Z,126.48
2023-05-24T11:14:35.194Z,125.12
2023-05-24T11:15:35.356Z,120.16
2023-05-24T11:16:35.487Z,115.45
2023-05-24T11:17:35.562Z,117.92
2023-05-24T11:18:35.644Z,122.64
2023-05-24T11:19:35.751Z,122.93
2023-05-24T11:20:35.900Z,127.42
2023-05-24T11:21:35.964Z,128.00
2023-05-24T11:22:36.062Z,128.26
2023-05-24T11:23:38.159Z,131.53
2023-05-24T11:24:36.278Z,134.35
2023-05-24T11:25:36.368Z,136.48
2023-05-24T11:26:36.489Z,137.06
2023-05-24T11:27:36.572Z,131.89
2023-05-24T11:28:37.231Z,127.71
2023-05-24T11:29:38.245Z,120.27
2023-05-24T11:30:36.904Z,121.92
2023-05-24T11:31:40.478Z,119.08
2023-05-24T11:32:38.203Z,118.39
2023-05-24T11:33:37.288Z,117.91
2023-05-24T11:34:37.407Z,118.73
2023-05-24T11:35:37.512Z,118.00
2023-05-24T11:36:37.646Z,122.88
2023-05-24T11:37:45.907Z,131.11
2023-05-24T11:38:38.849Z,131.29
2023-05-24T11:39:37.951Z,131.68
2023-05-24T11:40:38.065Z,131.33
2023-05-24T11:41:38.200Z,129.35
2023-05-24T11:42:38.297Z,130.83
2023-05-24T11:43:38.394Z,128.29
2023-05-24T11:44:38.499Z,126.30
2023-05-24T11:45:38.620Z,129.19
2023-05-24T11:46:38.746Z,127.64
2023-05-24T11:47:38.903Z,130.60
2023-05-24T11:48:40.806Z,128.68
2023-05-24T11:49:39.065Z,124.28
2023-05-24T11:50:48.828Z,124.35
2023-05-24T11:51:40.281Z,124.45
2023-05-24T11:52:39.418Z,125.19
2023-05-24T11:53:39.496Z,125.41
2023-05-24T11:54:39.600Z,126.16
2023-05-24T11:55:39.746Z,131.47
2023-05-24T11:56:39.818Z,130.28
2023-05-24T11:57:39.907Z,133.19
2023-05-24T11:58:40.002Z,139.30
2023-05-24T11:59:40.101Z,141.82
2023-05-24T12:00:40.282Z,143.22
2023-05-24T12:01:40.314Z,141.75
2023-05-24T12:02:40.693Z,143.34
2023-05-24T12:03:40.589Z,141.01
2023-05-24T12:04:41.245Z,132.86
2023-05-24T12:05:40.697Z,130.15
2023-05-24T12:06:40.804Z,132.14
2023-05-24T12:07:40.900Z,135.84
2023-05-24T12:08:41.004Z,126.70
2023-05-24T12:09:41.130Z,122.79
2023-05-24T12:10:41.483Z,121.49
2023-05-24T12:11:41.326Z,118.64
2023-05-24T12:12:45.608Z,120.73
2023-05-24T12:13:41.577Z,120.97
2023-05-24T12:14:41.692Z,122.11
2023-05-24T12:15:41.747Z,125.71
2023-05-24T12:16:41.813Z,135.47
2023-05-24T12:17:41.952Z,137.12
2023-05-24T12:18:51.446Z,132.60
2023-05-24T12:19:43.124Z,132.83
2023-05-24T12:20:42.397Z,134.96
2023-05-24T12:21:42.384Z,136.21
2023-05-24T12:22:42.432Z,126.40
2023-05-24T12:23:42.555Z,115.37
2023-05-24T12:24:42.686Z,117.03
2023-05-24T12:25:42.770Z,122.43
2023-05-24T12:26:42.937Z,129.49
2023-05-24T12:27:43.002Z,132.86
2023-05-24T12:28:43.095Z,137.33
2023-05-24T12:29:43.255Z,137.25
2023-05-24T12:30:43.501Z,138.08
2023-05-24T12:31:43.463Z,142.47
2023-05-24T12:32:43.573Z,144.30
2023-05-24T12:33:43.682Z,146.77